Time;durP1;ratioP1;P1;durP2;ratioP2;P2;SDS_P1;SDS_P2;PMS_P1;PMS_P2;Temp;Humidity;BMP_temperature;BMP_pressure;BME280_temperature;BME280_humidity;BME280_pressure;Samples;Min_cycle;Max_cycle;Signal;HPM_P1;HPM_P2
2023/11/15 00:00:50;;;;;;;3.30;1.63;;;9.70;99.90;;;;;;5095492;28;20086;-75
2023/11/15 00:03:16;;;;;;;8.27;1.48;;;9.70;99.90;;;;;;5094032;28;20556;-75
2023/11/15 00:05:42;;;;;;;3.35;1.38;;;9.50;99.90;;;;;;5094837;28;20036;-74
2023/11/15 00:08:08;;;;;;;8.55;1.70;;;9.50;99.90;;;;;;5095716;28;20527;-75
2023/11/15 00:10:34;;;;;;;7.55;1.30;;;9.60;99.90;;;;;;5094571;28;20055;-75
2023/11/15 00:12:59;;;;;;;9.70;1.23;;;9.50;99.90;;;;;;5094537;28;20536;-74
2023/11/15 00:15:25;;;;;;;3.67;1.20;;;9.50;99.90;;;;;;5094617;28;20044;-75
2023/11/15 00:17:51;;;;;;;12.20;1.95;;;9.50;99.90;;;;;;5094637;28;20414;-74
2023/11/15 00:20:16;;;;;;;5.43;1.45;;;9.50;99.90;;;;;;5096077;28;20040;-74
2023/11/15 00:22:42;;;;;;;7.47;1.35;;;9.40;99.90;;;;;;5096633;28;20036;-74
2023/11/15 00:25:08;;;;;;;8.95;1.20;;;9.50;99.90;;;;;;5097520;28;20032;-74
2023/11/15 00:27:34;;;;;;;6.63;1.52;;;9.50;99.90;;;;;;5095936;28;20036;-75
2023/11/15 00:30:01;;;;;;;4.43;1.08;;;9.50;99.90;;;;;;5094616;28;20075;-75
2023/11/15 00:32:26;;;;;;;5.25;1.10;;;9.40;99.90;;;;;;5094790;28;20036;-75
2023/11/15 00:34:53;;;;;;;4.18;1.50;;;9.40;99.90;;;;;;5095557;28;20517;-74
2023/11/15 00:37:18;;;;;;;7.32;2.45;;;9.40;99.90;;;;;;5095457;28;20040;-75
2023/11/15 00:39:44;;;;;;;4.15;1.40;;;9.40;99.90;;;;;;5095476;28;20047;-75
2023/11/15 00:42:10;;;;;;;4.22;1.33;;;9.40;99.90;;;;;;5095741;28;20081;-75
2023/11/15 00:44:36;;;;;;;4.72;1.30;;;9.30;99.90;;;;;;5094951;28;20416;-75
2023/11/15 00:47:03;;;;;;;2.92;1.35;;;9.30;99.90;;;;;;5093689;28;20043;-74
2023/11/15 00:49:29;;;;;;;4.55;1.50;;;9.30;99.90;;;;;;5094818;28;20047;-74
2023/11/15 00:51:56;;;;;;;12.88;2.78;;;9.30;99.90;;;;;;5093944;28;20094;-74
2023/11/15 00:54:22;;;;;;;4.13;1.85;;;9.40;99.90;;;;;;5093735;28;20044;-75
2023/11/15 00:56:48;;;;;;;6.30;1.95;;;9.40;99.90;;;;;;5095785;28;20411;-75
2023/11/15 00:59:16;;;;;;;7.93;1.38;;;9.30;99.90;;;;;;5095584;28;20036;-75
2023/11/15 01:01:43;;;;;;;6.80;1.40;;;9.50;99.90;;;;;;5095523;28;20118;-74
2023/11/15 01:04:10;;;;;;;4.03;1.20;;;9.30;99.90;;;;;;5095038;28;20065;-74
2023/11/15 01:06:36;;;;;;;4.60;2.30;;;9.30;99.90;;;;;;5095843;28;20085;-74
2023/11/15 01:09:03;;;;;;;5.32;1.38;;;9.30;99.90;;;;;;5094447;28;20039;-74
2023/11/15 01:11:29;;;;;;;6.35;1.83;;;9.50;99.90;;;;;;5093847;28;20035;-74
2023/11/15 01:13:54;;;;;;;6.95;1.67;;;9.40;99.90;;;;;;5093575;28;20070;-74
2023/11/15 01:16:23;;;;;;;5.35;1.55;;;9.50;99.90;;;;;;5095406;28;20044;-75
2023/11/15 01:18:50;;;;;;;4.40;1.67;;;9.50;99.90;;;;;;5095060;28;20457;-75
2023/11/15 01:21:18;;;;;;;4.78;1.38;;;9.40;99.90;;;;;;5093838;28;20190;-74
2023/11/15 01:23:43;;;;;;;9.95;1.50;;;9.30;99.90;;;;;;5092785;28;20047;-74
2023/11/15 01:26:09;;;;;;;6.00;2.15;;;9.50;99.90;;;;;;5093730;28;20040;-74
2023/11/15 01:28:35;;;;;;;5.47;1.83;;;9.50;99.90;;;;;;5094035;28;20522;-74
2023/11/15 01:31:01;;;;;;;10.25;1.65;;;9.50;99.90;;;;;;5094494;28;20089;-75
2023/11/15 01:33:26;;;;;;;5.57;1.65;;;9.40;99.90;;;;;;5095438;28;20044;-75
2023/11/15 01:35:52;;;;;;;4.90;1.42;;;9.50;99.90;;;;;;5095458;28;20123;-74
2023/11/15 01:38:18;;;;;;;2.67;1.52;;;9.40;99.90;;;;;;5094133;28;20040;-74
2023/11/15 01:40:43;;;;;;;7.82;1.98;;;9.50;99.90;;;;;;5093842;28;20519;-75
2023/11/15 01:43:10;;;;;;;9.40;1.60;;;9.50;99.90;;;;;;5094765;28;20036;-74
2023/11/15 01:45:36;;;;;;;4.82;1.25;;;9.50;99.90;;;;;;5093835;28;20039;-75
2023/11/15 01:48:03;;;;;;;4.95;1.85;;;9.50;99.90;;;;;;5099315;28;20492;-75
2023/11/15 01:50:29;;;;;;;5.82;1.65;;;9.40;99.90;;;;;;5100593;28;20039;-75
2023/11/15 01:52:56;;;;;;;4.97;1.50;;;9.50;99.90;;;;;;5100134;28;20043;-75
2023/11/15 01:55:22;;;;;;;6.38;1.60;;;9.50;99.90;;;;;;5100501;28;20040;-75
2023/11/15 01:57:49;;;;;;;4.63;1.88;;;9.50;99.90;;;;;;5098417;28;20092;-75
2023/11/15 02:00:15;;;;;;;4.65;1.58;;;9.50;99.90;;;;;;5098698;28;20047;-75
2023/11/15 02:02:42;;;;;;;6.25;1.55;;;9.40;99.90;;;;;;5098360;28;20032;-75
2023/11/15 02:05:13;;;;;;;4.53;1.52;;;9.50;99.90;;;;;;5096844;28;20032;-74
2023/11/15 02:07:40;;;;;;;5.88;1.60;;;9.40;99.90;;;;;;5097009;28;20453;-74
2023/11/15 02:10:06;;;;;;;6.10;1.70;;;9.40;99.90;;;;;;5098703;28;20043;-75
2023/11/15 02:12:33;;;;;;;6.95;1.40;;;9.40;99.90;;;;;;5097932;28;20119;-75
2023/11/15 02:14:59;;;;;;;5.18;1.58;;;9.50;99.90;;;;;;5097684;28;20055;-74
2023/11/15 02:17:26;;;;;;;5.10;1.85;;;9.40;99.90;;;;;;5079827;28;20047;-75
2023/11/15 02:19:51;;;;;;;4.80;1.17;;;9.50;99.90;;;;;;5098191;28;20036;-74
2023/11/15 02:22:18;;;;;;;8.73;1.58;;;9.50;99.90;;;;;;5097686;28;20040;-74
2023/11/15 02:24:44;;;;;;;9.48;1.58;;;9.50;99.90;;;;;;5097504;28;20093;-74
2023/11/15 02:27:10;;;;;;;3.35;1.23;;;9.50;99.90;;;;;;5098463;28;20134;-74
2023/11/15 02:29:36;;;;;;;3.67;1.20;;;9.50;99.90;;;;;;5098338;28;20082;-75
2023/11/15 02:32:02;;;;;;;7.50;2.65;;;9.50;99.90;;;;;;5097671;28;20036;-74
2023/11/15 02:34:27;;;;;;;2.88;1.40;;;9.50;99.90;;;;;;5097796;28;20054;-74
2023/11/15 02:36:53;;;;;;;3.58;1.10;;;9.50;99.90;;;;;;5098320;28;20029;-74
2023/11/15 02:39:19;;;;;;;2.97;1.20;;;9.50;99.90;;;;;;5097908;28;20044;-74
2023/11/15 02:41:45;;;;;;;4.47;1.52;;;9.50;99.90;;;;;;5097336;28;20092;-74
2023/11/15 02:44:10;;;;;;;6.25;1.40;;;9.50;99.90;;;;;;5096707;28;20036;-75
2023/11/15 02:46:37;;;;;;;3.65;1.30;;;9.50;99.90;;;;;;5097361;28;20122;-75
2023/11/15 02:49:03;;;;;;;8.48;2.42;;;9.40;99.90;;;;;;5097362;28;20048;-75
2023/11/15 02:51:28;;;;;;;3.30;1.20;;;9.50;99.90;;;;;;5095558;28;20043;-75
2023/11/15 02:53:54;;;;;;;4.13;1.30;;;9.50;99.90;;;;;;5096113;28;20093;-75
2023/11/15 02:56:21;;;;;;;4.68;1.85;;;9.50;99.90;;;;;;5095307;28;20525;-75
2023/11/15 02:58:46;;;;;;;3.28;1.30;;;9.50;99.90;;;;;;5096576;28;20119;-75
2023/11/15 03:01:12;;;;;;;8.35;1.15;;;9.60;99.90;;;;;;5095547;28;20449;-75
2023/11/15 03:03:39;;;;;;;6.32;1.40;;;9.50;99.90;;;;;;5094968;28;20089;-75
2023/11/15 03:06:08;;;;;;;7.60;2.05;;;9.60;99.90;;;;;;5095222;28;20031;-75
2023/11/15 03:08:33;;;;;;;5.15;1.65;;;9.50;99.90;;;;;;5095809;28;20575;-75
2023/11/15 03:10:59;;;;;;;3.05;1.13;;;9.60;99.90;;;;;;5094363;28;20040;-75
2023/11/15 03:13:25;;;;;;;3.63;1.30;;;9.50;99.90;;;;;;5097225;28;20038;-75
2023/11/15 03:15:52;;;;;;;5.47;1.20;;;9.60;99.90;;;;;;5099391;28;20078;-75
2023/11/15 03:18:18;;;;;;;3.97;1.55;;;9.50;99.90;;;;;;5080749;28;20613;-75
2023/11/15 03:20:43;;;;;;;5.85;1.27;;;9.60;99.90;;;;;;5099036;28;20028;-75
2023/11/15 03:23:12;;;;;;;2.67;1.40;;;9.60;99.90;;;;;;5096440;28;20473;-75
2023/11/15 03:25:38;;;;;;;5.93;1.77;;;9.60;99.90;;;;;;5095943;28;20066;-75
2023/11/15 03:28:05;;;;;;;4.85;2.10;;;9.50;99.90;;;;;;5094820;28;20040;-75
2023/11/15 03:30:31;;;;;;;7.72;2.30;;;9.50;99.90;;;;;;5096343;28;20507;-75
2023/11/15 03:32:56;;;;;;;3.72;1.75;;;9.60;99.90;;;;;;5095961;28;20032;-75
2023/11/15 03:35:22;;;;;;;3.85;1.80;;;9.60;99.90;;;;;;5094578;28;20038;-75
2023/11/15 03:37:49;;;;;;;4.88;2.53;;;9.50;99.90;;;;;;5094606;28;20038;-75
2023/11/15 03:40:15;;;;;;;6.80;1.60;;;9.60;99.90;;;;;;5096212;28;20389;-75
2023/11/15 03:42:41;;;;;;;4.93;2.25;;;9.50;99.90;;;;;;5095295;28;20089;-75
2023/11/15 03:45:09;;;;;;;4.18;1.90;;;9.50;99.90;;;;;;5094166;28;20044;-75
2023/11/15 03:47:36;;;;;;;4.65;1.85;;;9.60;99.90;;;;;;5093920;28;20097;-75
2023/11/15 03:50:02;;;;;;;4.50;2.40;;;9.50;99.90;;;;;;5095571;28;20048;-75
2023/11/15 03:52:29;;;;;;;8.20;2.88;;;9.50;99.90;;;;;;5094974;28;20044;-75
2023/11/15 03:54:54;;;;;;;5.60;2.20;;;9.50;99.90;;;;;;5094507;28;20518;-75
2023/11/15 03:57:20;;;;;;;7.28;2.83;;;9.50;99.90;;;;;;5094185;28;20044;-75
2023/11/15 03:59:46;;;;;;;5.20;2.42;;;9.50;99.90;;;;;;5077211;28;20044;-75
2023/11/15 04:02:11;;;;;;;5.43;2.22;;;9.50;99.90;;;;;;5093261;28;20032;-75
2023/11/15 04:04:37;;;;;;;4.63;2.28;;;9.60;99.90;;;;;;5094901;28;20411;-75
2023/11/15 04:07:03;;;;;;;7.32;2.75;;;9.60;99.90;;;;;;5093448;28;20044;-75
2023/11/15 04:09:31;;;;;;;5.25;2.65;;;9.50;99.90;;;;;;5076457;28;20039;-75
2023/11/15 04:11:57;;;;;;;5.95;2.67;;;9.60;99.90;;;;;;5095369;28;20044;-75
2023/11/15 04:14:24;;;;;;;5.68;3.22;;;9.50;99.90;;;;;;5094411;28;20085;-75
2023/11/15 04:16:51;;;;;;;7.63;2.92;;;9.50;99.90;;;;;;5094803;28;20418;-75
2023/11/15 04:19:17;;;;;;;5.70;3.58;;;9.40;99.90;;;;;;5094248;28;20040;-75
2023/11/15 04:21:43;;;;;;;5.80;2.53;;;9.50;99.90;;;;;;5093012;28;20039;-75
2023/11/15 04:24:09;;;;;;;6.70;2.38;;;9.40;99.90;;;;;;5094096;28;20079;-75
2023/11/15 04:26:34;;;;;;;6.55;2.88;;;9.40;99.90;;;;;;5093468;28;20036;-75
2023/11/15 04:29:00;;;;;;;5.95;2.83;;;9.40;99.90;;;;;;5094061;28;20036;-75
2023/11/15 04:31:25;;;;;;;5.45;2.55;;;9.30;99.90;;;;;;5094139;28;20135;-75
2023/11/15 04:33:51;;;;;;;5.88;3.17;;;9.30;99.90;;;;;;5091995;28;20082;-75
2023/11/15 04:36:19;;;;;;;4.97;2.67;;;9.30;99.90;;;;;;5092572;28;20089;-75
2023/11/15 04:38:45;;;;;;;4.72;2.60;;;9.30;99.90;;;;;;5075532;28;20115;-75
2023/11/15 04:41:11;;;;;;;6.13;3.10;;;9.30;99.90;;;;;;5075531;28;20036;-75
2023/11/15 04:43:37;;;;;;;4.78;2.30;;;9.30;99.90;;;;;;5075365;28;20044;-76
2023/11/15 04:46:04;;;;;;;5.53;3.03;;;9.30;99.90;;;;;;5093801;28;20067;-75
2023/11/15 04:48:29;;;;;;;8.00;3.03;;;9.30;99.90;;;;;;5094382;28;20046;-75
2023/11/15 04:50:57;;;;;;;6.47;3.15;;;9.20;99.90;;;;;;5093520;28;20550;-75
2023/11/15 04:53:24;;;;;;;7.88;2.42;;;9.20;99.90;;;;;;5093457;28;20125;-75
2023/11/15 04:55:50;;;;;;;5.50;3.33;;;9.10;99.90;;;;;;5092791;28;20048;-75
2023/11/15 04:58:16;;;;;;;7.78;3.03;;;9.10;99.90;;;;;;5092677;28;20035;-75
2023/11/15 05:00:42;;;;;;;7.65;2.78;;;9.10;99.90;;;;;;5094411;28;20036;-75
2023/11/15 05:03:07;;;;;;;6.00;3.03;;;9.00;99.90;;;;;;5093416;28;20040;-75
2023/11/15 05:05:33;;;;;;;5.32;3.05;;;9.10;99.90;;;;;;5094121;28;20066;-75
2023/11/15 05:07:59;;;;;;;6.72;3.03;;;9.20;99.90;;;;;;5094002;28;20081;-75
2023/11/15 05:10:25;;;;;;;6.43;2.92;;;9.10;99.90;;;;;;5093886;28;20047;-75
2023/11/15 05:12:51;;;;;;;9.48;3.05;;;9.20;99.90;;;;;;5093200;28;20036;-75
2023/11/15 05:15:17;;;;;;;7.22;2.67;;;9.10;99.90;;;;;;5091612;28;20047;-75
2023/11/15 05:17:43;;;;;;;5.72;2.80;;;9.10;99.90;;;;;;5092187;28;20178;-75
2023/11/15 05:20:10;;;;;;;5.82;2.75;;;9.00;99.90;;;;;;5092039;28;20555;-75
2023/11/15 05:22:36;;;;;;;4.35;2.63;;;9.10;99.90;;;;;;5096936;28;20052;-76
2023/11/15 05:25:04;;;;;;;6.72;2.90;;;9.10;99.90;;;;;;5095894;28;20043;-76
2023/11/15 05:27:30;;;;;;;6.60;3.45;;;9.10;99.90;;;;;;5097136;28;20040;-75
2023/11/15 05:29:56;;;;;;;6.00;3.10;;;9.00;99.90;;;;;;5096931;28;20044;-76
2023/11/15 05:32:21;;;;;;;10.07;3.40;;;9.10;99.90;;;;;;5096511;28;20089;-75
2023/11/15 05:34:47;;;;;;;5.55;3.28;;;9.10;99.90;;;;;;5095245;28;20048;-76
2023/11/15 05:37:13;;;;;;;6.90;3.40;;;9.00;99.90;;;;;;5097289;28;20403;-76
2023/11/15 05:39:40;;;;;;;6.10;2.65;;;9.10;99.90;;;;;;5095462;28;20044;-76
2023/11/15 05:42:07;;;;;;;5.85;3.63;;;9.10;99.90;;;;;;5078736;28;20547;-76
2023/11/15 05:44:33;;;;;;;5.63;3.50;;;9.20;99.90;;;;;;5078155;28;20035;-76
2023/11/15 05:46:59;;;;;;;4.53;2.88;;;9.20;99.90;;;;;;5095617;28;20032;-76
2023/11/15 05:49:25;;;;;;;6.82;3.10;;;9.10;99.90;;;;;;5095281;28;20044;-76
2023/11/15 05:51:51;;;;;;;5.53;2.92;;;9.20;99.90;;;;;;5078809;28;20035;-76
2023/11/15 05:54:17;;;;;;;7.07;3.42;;;9.20;99.90;;;;;;5094711;28;20479;-76
2023/11/15 05:56:48;;;;;;;8.13;3.10;;;9.20;99.90;;;;;;5095652;28;20430;-76
2023/11/15 05:59:14;;;;;;;3.72;2.72;;;9.20;99.90;;;;;;5095867;28;20089;-76
2023/11/15 06:01:40;;;;;;;5.55;3.25;;;9.20;99.90;;;;;;5095494;28;20131;-76
2023/11/15 06:04:07;;;;;;;7.60;3.22;;;9.20;99.90;;;;;;5097372;28;20040;-76
2023/11/15 06:06:33;;;;;;;7.07;3.00;;;9.20;99.90;;;;;;5078187;28;20032;-76
2023/11/15 06:08:59;;;;;;;4.90;3.08;;;9.30;99.90;;;;;;5095533;28;20434;-76
2023/11/15 06:11:25;;;;;;;5.25;3.33;;;9.30;99.90;;;;;;5095020;28;20082;-76
2023/11/15 06:13:51;;;;;;;7.00;3.58;;;9.30;99.90;;;;;;5094517;28;20048;-75
2023/11/15 06:16:16;;;;;;;6.47;4.05;;;9.20;99.90;;;;;;5094770;28;20398;-75
2023/11/15 06:18:42;;;;;;;5.40;3.47;;;9.30;99.90;;;;;;5096297;28;20062;-75
2023/11/15 06:21:08;;;;;;;5.50;3.17;;;9.30;99.90;;;;;;5094920;28;20028;-76
2023/11/15 06:23:36;;;;;;;5.22;3.17;;;9.30;99.90;;;;;;5096057;28;20040;-76
2023/11/15 06:26:02;;;;;;;6.63;3.83;;;9.20;99.90;;;;;;5079122;28;20032;-76
2023/11/15 06:28:28;;;;;;;5.63;3.28;;;9.30;99.90;;;;;;5096894;28;20237;-77
2023/11/15 06:30:53;;;;;;;6.10;3.85;;;9.30;99.90;;;;;;5078489;28;20032;-77
2023/11/15 06:33:19;;;;;;;7.38;4.00;;;9.30;99.90;;;;;;5093635;28;20032;-75
2023/11/15 06:35:45;;;;;;;4.75;3.33;;;9.20;99.90;;;;;;5095651;28;20062;-76
2023/11/15 06:38:11;;;;;;;4.95;3.33;;;9.20;99.90;;;;;;5095986;28;20036;-76
2023/11/15 06:40:36;;;;;;;4.75;2.95;;;9.20;99.90;;;;;;5095272;28;20056;-76
2023/11/15 06:43:02;;;;;;;5.30;3.45;;;9.20;99.90;;;;;;5094971;28;20051;-76
2023/11/15 06:45:28;;;;;;;8.45;3.60;;;9.30;99.90;;;;;;5094744;28;20067;-76
2023/11/15 06:47:54;;;;;;;5.57;3.25;;;9.30;99.90;;;;;;5095663;28;20032;-76
2023/11/15 06:50:22;;;;;;;4.47;3.00;;;9.40;99.90;;;;;;5095525;28;20089;-76
2023/11/15 06:52:48;;;;;;;5.40;3.50;;;9.30;99.90;;;;;;5094899;28;20040;-76
2023/11/15 06:55:15;;;;;;;7.18;2.90;;;9.30;99.90;;;;;;5095043;28;20085;-76
2023/11/15 06:57:41;;;;;;;4.55;2.80;;;9.30;99.90;;;;;;5096743;28;20537;-76
2023/11/15 07:00:12;;;;;;;4.88;2.60;;;9.30;99.90;;;;;;5095008;28;20040;-76
2023/11/15 07:02:42;;;;;;;4.68;2.70;;;9.40;99.90;;;;;;5097848;28;20043;-76
2023/11/15 07:05:10;;;;;;;5.30;2.85;;;9.40;99.90;;;;;;5097543;28;20105;-76
2023/11/15 07:07:35;;;;;;;7.18;3.42;;;9.40;99.90;;;;;;5098509;28;20038;-76
2023/11/15 07:10:05;;;;;;;5.15;3.05;;;9.40;99.90;;;;;;5097014;28;20052;-76
2023/11/15 07:12:31;;;;;;;5.43;2.88;;;9.40;99.90;;;;;;5078617;28;20035;-76
2023/11/15 07:14:57;;;;;;;5.28;3.00;;;9.30;99.90;;;;;;5095234;28;20043;-76
2023/11/15 07:17:23;;;;;;;7.28;2.80;;;9.40;99.90;;;;;;5096555;28;20048;-76
2023/11/15 07:19:49;;;;;;;6.57;3.33;;;9.40;99.90;;;;;;5096048;28;20047;-76
2023/11/15 07:22:15;;;;;;;5.68;2.70;;;9.50;99.90;;;;;;5098205;28;20036;-76
2023/11/15 07:24:42;;;;;;;6.70;3.65;;;9.40;99.90;;;;;;5096970;28;20059;-76
2023/11/15 07:27:08;;;;;;;5.82;3.58;;;9.50;99.90;;;;;;5096820;28;20086;-75
2023/11/15 07:29:35;;;;;;;4.20;2.90;;;9.50;99.90;;;;;;5094580;28;20032;-75
2023/11/15 07:32:04;;;;;;;3.90;2.97;;;9.50;99.90;;;;;;5092354;28;20058;-75
2023/11/15 07:34:32;;;;;;;7.50;2.97;;;9.50;99.90;;;;;;5093110;28;20646;-75
2023/11/15 07:36:58;;;;;;;9.07;2.97;;;9.50;99.90;;;;;;5075113;28;20053;-75
2023/11/15 07:39:24;;;;;;;4.75;3.17;;;9.50;99.90;;;;;;5093396;28;20036;-76
2023/11/15 07:41:57;;;;;;;6.93;2.95;;;9.50;99.90;;;;;;5075157;28;20487;-76
2023/11/15 07:44:25;;;;;;;6.68;3.63;;;9.50;99.90;;;;;;5091209;28;20115;-75
2023/11/15 07:46:51;;;;;;;8.13;3.30;;;9.50;99.90;;;;;;5085547;28;20036;-75
2023/11/15 07:49:23;;;;;;;7.60;4.03;;;9.60;99.90;;;;;;5089334;28;20055;-75
2023/11/15 07:51:49;;;;;;;4.95;3.50;;;9.50;99.90;;;;;;5091970;28;20044;-75
2023/11/15 07:54:15;;;;;;;7.35;3.40;;;9.50;99.90;;;;;;5091990;28;20079;-75
2023/11/15 07:56:42;;;;;;;4.60;3.55;;;9.60;99.90;;;;;;5091879;28;20036;-75
2023/11/15 07:59:07;;;;;;;6.32;3.83;;;9.60;99.90;;;;;;5091462;28;20514;-75
2023/11/15 08:01:33;;;;;;;7.15;4.03;;;9.60;99.90;;;;;;5089968;28;20036;-75
2023/11/15 08:04:01;;;;;;;8.38;4.40;;;9.60;99.90;;;;;;5090879;28;20384;-75
2023/11/15 08:06:27;;;;;;;5.43;3.78;;;9.70;99.90;;;;;;5091594;28;20463;-75
2023/11/15 08:08:54;;;;;;;7.50;3.42;;;9.80;99.90;;;;;;5092068;28;20087;-75
2023/11/15 08:11:22;;;;;;;7.55;3.33;;;9.80;99.90;;;;;;5075145;28;20040;-78
2023/11/15 08:13:47;;;;;;;7.20;2.92;;;9.80;99.90;;;;;;5083521;28;20043;-77
2023/11/15 08:16:14;;;;;;;5.57;2.90;;;9.80;99.90;;;;;;5091389;28;20036;-77
2023/11/15 08:18:42;;;;;;;5.68;3.20;;;9.80;99.90;;;;;;5091788;28;20085;-77
2023/11/15 08:21:09;;;;;;;7.97;2.70;;;9.70;99.90;;;;;;5091251;28;20449;-77
2023/11/15 08:23:35;;;;;;;6.97;2.80;;;9.70;99.90;;;;;;5072547;28;20036;-77
2023/11/15 08:26:02;;;;;;;7.38;2.88;;;9.70;99.90;;;;;;5074621;28;20070;-77
2023/11/15 08:28:30;;;;;;;4.97;2.95;;;9.70;99.90;;;;;;5091406;28;20468;-77
2023/11/15 08:30:58;;;;;;;5.25;3.38;;;9.70;99.90;;;;;;5091858;28;20487;-77
2023/11/15 08:33:24;;;;;;;5.20;3.00;;;9.60;99.90;;;;;;5092579;28;20044;-77
2023/11/15 08:35:50;;;;;;;5.97;3.65;;;9.70;99.90;;;;;;5089088;28;20070;-77
2023/11/15 08:38:18;;;;;;;6.25;2.95;;;9.70;99.90;;;;;;5076138;28;20040;-77
2023/11/15 08:40:49;;;;;;;9.02;3.03;;;9.90;99.90;;;;;;5075691;28;20036;-77
2023/11/15 08:43:14;;;;;;;8.55;3.30;;;9.90;99.90;;;;;;5086094;28;20437;-77
2023/11/15 08:45:41;;;;;;;8.88;3.22;;;9.80;99.90;;;;;;5092059;28;20047;-77
2023/11/15 08:48:08;;;;;;;8.20;3.80;;;9.70;99.90;;;;;;5091523;28;20173;-77
2023/11/15 08:50:34;;;;;;;4.60;2.50;;;9.70;99.90;;;;;;5091470;28;20071;-77
2023/11/15 08:52:59;;;;;;;7.40;3.08;;;9.60;99.90;;;;;;5074422;28;20564;-77
2023/11/15 08:55:26;;;;;;;7.35;2.33;;;9.60;99.90;;;;;;5092864;28;20075;-77
2023/11/15 08:57:52;;;;;;;5.60;3.40;;;9.60;99.90;;;;;;5095655;28;20032;-77
2023/11/15 09:00:18;;;;;;;6.65;2.40;;;9.70;99.90;;;;;;5094706;28;20047;-77
2023/11/15 09:02:46;;;;;;;7.15;2.47;;;9.70;99.90;;;;;;5065468;28;20040;-78
2023/11/15 09:05:14;;;;;;;6.75;2.33;;;9.80;99.90;;;;;;5074340;28;20055;-78
2023/11/15 09:07:40;;;;;;;10.43;2.63;;;9.80;99.90;;;;;;5076727;28;20053;-78
2023/11/15 09:10:11;;;;;;;9.05;2.42;;;9.80;99.90;;;;;;5076129;28;20097;-78
2023/11/15 09:12:37;;;;;;;5.10;2.20;;;9.80;99.90;;;;;;5076486;28;20048;-78
2023/11/15 09:15:11;;;;;;;5.50;2.55;;;9.80;99.90;;;;;;5076555;28;20444;-77
2023/11/15 09:17:46;;;;;;;5.70;2.55;;;9.90;99.90;;;;;;5075069;28;20054;-77
2023/11/15 09:20:26;;;;;;;7.18;2.58;;;9.90;99.90;;;;;;5058484;28;20045;-77
2023/11/15 09:22:53;;;;;;;7.22;2.50;;;9.90;99.90;;;;;;5087153;28;20028;-78
2023/11/15 09:25:30;;;;;;;8.85;2.90;;;10.00;99.90;;;;;;5078286;28;20109;-78
2023/11/15 09:27:59;;;;;;;7.07;2.80;;;10.10;99.90;;;;;;5095939;28;20040;-77
2023/11/15 09:30:25;;;;;;;6.93;2.42;;;10.00;99.90;;;;;;5095307;28;20032;-77
2023/11/15 09:32:51;;;;;;;11.48;2.90;;;10.20;99.90;;;;;;5078030;28;20048;-78
2023/11/15 09:35:27;;;;;;;6.65;2.05;;;10.10;99.90;;;;;;5094865;28;20050;-77
2023/11/15 09:37:54;;;;;;;10.65;2.95;;;10.30;99.90;;;;;;5095189;28;20044;-78
2023/11/15 09:40:21;;;;;;;7.38;2.85;;;10.20;99.90;;;;;;5085808;28;20040;-78
2023/11/15 09:42:51;;;;;;;6.85;2.55;;;10.40;99.90;;;;;;5085201;28;20040;-77
2023/11/15 09:45:19;;;;;;;7.03;2.92;;;10.50;99.90;;;;;;5082083;28;20036;-77
2023/11/15 09:47:49;;;;;;;8.93;2.45;;;10.40;99.90;;;;;;5083343;28;20407;-77
2023/11/15 09:50:21;;;;;;;6.45;2.88;;;10.60;99.90;;;;;;5086720;28;20040;-77
2023/11/15 09:52:51;;;;;;;6.90;2.50;;;10.50;99.90;;;;;;5083554;28;20504;-77
2023/11/15 09:55:24;;;;;;;7.18;2.42;;;10.60;99.90;;;;;;5084979;28;20637;-77
2023/11/15 09:57:51;;;;;;;5.95;2.45;;;10.50;99.90;;;;;;5085435;28;20040;-78
2023/11/15 10:00:20;;;;;;;7.38;1.98;;;10.60;99.90;;;;;;5082508;28;20032;-78
2023/11/15 10:02:53;;;;;;;5.90;2.17;;;10.50;99.90;;;;;;5074541;28;20045;-78
2023/11/15 10:05:22;;;;;;;3.85;1.88;;;10.50;99.90;;;;;;5076534;28;20116;-77
2023/11/15 10:07:50;;;;;;;8.98;2.70;;;10.50;99.90;;;;;;5075066;28;20075;-76
2023/11/15 10:10:22;;;;;;;5.68;1.60;;;10.70;99.90;;;;;;5075306;28;20122;-77
2023/11/15 10:12:53;;;;;;;6.50;1.75;;;10.70;99.90;;;;;;5074817;28;20040;-76
2023/11/15 10:15:39;;;;;;;7.53;1.95;;;10.60;99.90;;;;;;5074927;28;20048;-76
2023/11/15 10:18:08;;;;;;;3.33;1.70;;;10.70;99.90;;;;;;5108819;28;20184;-76
2023/11/15 10:20:35;;;;;;;6.18;1.70;;;10.70;99.90;;;;;;5074423;28;20115;-76
2023/11/15 10:23:01;;;;;;;5.97;1.80;;;10.60;99.90;;;;;;5074584;28;20536;-76
2023/11/15 10:25:27;;;;;;;3.70;1.48;;;10.60;99.90;;;;;;5074357;28;20033;-76
2023/11/15 10:28:07;;;;;;;7.70;1.58;;;10.70;99.90;;;;;;5074183;28;20110;-76
2023/11/15 10:30:32;;;;;;;5.45;2.30;;;10.70;99.90;;;;;;5074528;28;20044;-76
2023/11/15 10:33:10;;;;;;;5.43;2.10;;;10.80;99.90;;;;;;5086732;28;20076;-76
2023/11/15 10:35:40;;;;;;;4.10;2.20;;;10.80;99.90;;;;;;5094387;28;20051;-77
2023/11/15 10:38:13;;;;;;;7.90;2.63;;;10.60;99.90;;;;;;5094513;28;20092;-77
2023/11/15 10:40:38;;;;;;;6.22;2.75;;;10.70;99.90;;;;;;5094758;28;20048;-77
2023/11/15 10:43:04;;;;;;;9.10;2.55;;;10.70;99.90;;;;;;5094122;28;20062;-76
2023/11/15 10:45:31;;;;;;;4.15;2.20;;;10.80;99.90;;;;;;5094071;28;20089;-76
2023/11/15 10:48:11;;;;;;;6.03;2.88;;;10.80;99.90;;;;;;5083472;28;20059;-76
2023/11/15 10:50:45;;;;;;;5.78;3.03;;;10.80;99.90;;;;;;5082556;28;20040;-76
2023/11/15 10:53:11;;;;;;;5.45;3.08;;;10.80;99.90;;;;;;5084704;28;20040;-76
2023/11/15 10:55:40;;;;;;;5.88;2.63;;;10.80;99.90;;;;;;5094285;28;20036;-76
2023/11/15 10:58:11;;;;;;;5.35;2.40;;;10.80;99.90;;;;;;5093953;28;20040;-77
2023/11/15 11:00:40;;;;;;;6.07;2.42;;;10.70;99.90;;;;;;5093281;28;20040;-76
2023/11/15 11:03:07;;;;;;;5.95;2.60;;;10.80;99.90;;;;;;5094130;28;20035;-77
2023/11/15 11:05:57;;;;;;;3.25;2.10;;;10.80;99.90;;;;;;5092845;28;20040;-77
2023/11/15 11:08:48;;;;;;;2.88;1.42;;;10.80;99.90;;;;;;5094184;28;20043;-76
2023/11/15 11:11:30;;;;;;;4.38;1.58;;;10.60;99.90;;;;;;5096341;28;20406;-76
2023/11/15 11:14:34;;;;;;;4.60;1.58;;;10.60;99.90;;;;;;5092409;28;20044;-76
2023/11/15 11:16:59;;;;;;;3.28;0.90;;;10.60;99.90;;;;;;5074930;28;20123;-76
2023/11/15 11:19:28;;;;;;;3.08;0.90;;;10.50;99.90;;;;;;5093157;28;20103;-77
2023/11/15 11:22:11;;;;;;;4.22;0.73;;;10.40;99.90;;;;;;5078354;28;20055;-77
2023/11/15 11:24:59;;;;;;;1.63;0.70;;;10.50;99.90;;;;;;5081957;28;20047;-77
2023/11/15 11:27:24;;;;;;;4.60;0.80;;;10.40;99.90;;;;;;5077551;28;20049;-76
2023/11/15 11:29:56;;;;;;;1.60;0.85;;;10.50;99.90;;;;;;5057180;28;20171;-76
2023/11/15 11:32:31;;;;;;;5.32;1.30;;;10.50;99.90;;;;;;5073385;28;20056;-77
2023/11/15 11:35:12;;;;;;;6.15;1.00;;;10.40;99.90;;;;;;5055475;28;20568;-76
2023/11/15 11:37:47;;;;;;;4.32;0.88;;;10.50;99.90;;;;;;5072137;28;20051;-76
2023/11/15 11:40:14;;;;;;;4.63;1.45;;;10.50;99.90;;;;;;5073925;28;20047;-76
2023/11/15 11:42:43;;;;;;;3.95;1.33;;;10.60;99.90;;;;;;5072686;28;20170;-76
2023/11/15 11:45:10;;;;;;;6.13;1.92;;;10.60;99.90;;;;;;5055800;28;20040;-76
2023/11/15 11:47:39;;;;;;;19.70;2.50;;;10.70;99.90;;;;;;5073060;28;20033;-76
2023/11/15 11:50:09;;;;;;;4.72;1.40;;;10.60;99.90;;;;;;5055610;28;20596;-76
2023/11/15 11:52:35;;;;;;;6.68;2.17;;;10.70;99.90;;;;;;5072223;28;20040;-76
2023/11/15 11:55:02;;;;;;;3.58;1.10;;;10.60;99.90;;;;;;5074377;28;20048;-76
2023/11/15 11:57:28;;;;;;;3.00;1.55;;;10.70;99.90;;;;;;5073647;28;20071;-76
2023/11/15 12:00:11;;;;;;;8.27;1.52;;;10.80;99.90;;;;;;5073911;28;20076;-76
2023/11/15 12:02:41;;;;;;;6.38;1.85;;;10.60;99.90;;;;;;5074585;28;20393;-76
2023/11/15 12:05:10;;;;;;;6.93;1.70;;;10.60;99.90;;;;;;5056216;28;20047;-75
2023/11/15 12:07:47;;;;;;;8.23;1.50;;;10.60;99.90;;;;;;5071802;28;20052;-76
2023/11/15 12:10:15;;;;;;;5.43;1.50;;;10.60;99.90;;;;;;5072386;28;20037;-75
2023/11/15 12:12:41;;;;;;;4.82;1.70;;;10.70;99.90;;;;;;5073157;28;20087;-75
2023/11/15 12:15:15;;;;;;;7.57;1.50;;;10.70;99.90;;;;;;5071695;28;20063;-75
2023/11/15 12:17:42;;;;;;;7.05;1.65;;;10.80;99.90;;;;;;5083024;28;20047;-76
2023/11/15 12:20:12;;;;;;;4.13;1.33;;;11.00;99.90;;;;;;5088986;28;20036;-76
2023/11/15 12:22:43;;;;;;;6.07;1.48;;;11.10;99.90;;;;;;5096401;28;20100;-75
2023/11/15 12:25:15;;;;;;;9.77;1.90;;;11.20;99.90;;;;;;5095515;28;20498;-75
2023/11/15 12:27:45;;;;;;;6.07;1.80;;;11.30;99.90;;;;;;5095854;28;20475;-76
2023/11/15 12:30:11;;;;;;;8.82;1.92;;;11.50;99.90;;;;;;5092810;28;20035;-75
2023/11/15 12:32:38;;;;;;;3.72;1.35;;;11.40;99.90;;;;;;5092602;28;20055;-73
2023/11/15 12:35:06;;;;;;;13.43;5.55;;;11.60;99.90;;;;;;5090717;28;20036;-73
2023/11/15 12:37:33;;;;;;;16.60;5.43;;;11.60;99.90;;;;;;5081814;28;20093;-75
2023/11/15 12:40:01;;;;;;;8.80;2.85;;;11.70;99.90;;;;;;5081089;28;20045;-76
2023/11/15 12:42:27;;;;;;;19.02;3.60;;;11.80;99.90;;;;;;5081679;28;20472;-76
2023/11/15 12:44:54;;;;;;;5.70;2.63;;;12.00;99.90;;;;;;5093611;28;20051;-74
2023/11/15 12:47:25;;;;;;;12.10;2.70;;;11.90;99.90;;;;;;5096006;28;20047;-74
2023/11/15 12:49:51;;;;;;;10.15;3.20;;;11.90;99.90;;;;;;5095215;28;20043;-74
2023/11/15 12:52:39;;;;;;;44.97;25.95;;;12.10;99.90;;;;;;5095344;28;20039;-76
2023/11/15 12:55:05;;;;;;;23.83;11.38;;;12.20;99.90;;;;;;5097307;28;20040;-75